createdAt,value
2019-05-15T00:02:18.409Z,8.20
2019-05-15T00:04:49.224Z,8.00
2019-05-15T00:07:18.851Z,8.00
2019-05-15T00:09:49.135Z,8.00
2019-05-15T00:12:18.987Z,8.00
2019-05-15T00:14:49.108Z,7.90
2019-05-15T00:17:19.135Z,7.90
2019-05-15T00:19:48.727Z,7.90
2019-05-15T00:22:18.543Z,7.90
2019-05-15T00:24:48.871Z,7.90
2019-05-15T00:27:20.334Z,7.90
2019-05-15T00:29:50.781Z,7.90
2019-05-15T00:32:20.297Z,8.00
2019-05-15T00:34:49.580Z,7.90
2019-05-15T00:37:19.107Z,7.90
2019-05-15T00:39:48.712Z,7.80
2019-05-15T00:42:19.042Z,7.80
2019-05-15T00:44:49.325Z,7.80
2019-05-15T00:47:18.854Z,7.70
2019-05-15T00:49:48.762Z,7.70
2019-05-15T00:52:18.305Z,7.70
2019-05-15T00:54:48.451Z,7.70
2019-05-15T00:57:19.214Z,7.70
2019-05-15T00:59:48.957Z,7.70
2019-05-15T01:02:18.258Z,7.80
2019-05-15T01:04:47.983Z,7.80
2019-05-15T01:07:18.826Z,7.80
2019-05-15T01:09:48.706Z,7.70
2019-05-15T01:12:18.599Z,7.70
2019-05-15T01:14:48.934Z,7.60
2019-05-15T01:17:18.564Z,7.60
2019-05-15T01:19:48.345Z,7.60
2019-05-15T01:22:19.475Z,7.50
2019-05-15T01:24:48.934Z,7.50
2019-05-15T01:27:18.603Z,7.50
2019-05-15T01:29:49.293Z,7.60
2019-05-15T01:32:19.284Z,7.70
2019-05-15T01:34:49.184Z,7.60
2019-05-15T01:37:18.964Z,7.50
2019-05-15T01:39:48.626Z,7.50
2019-05-15T01:42:18.647Z,7.50
2019-05-15T01:44:48.542Z,7.50
2019-05-15T01:47:19.035Z,7.40
2019-05-15T01:49:49.055Z,7.50
2019-05-15T01:52:19.018Z,7.40
2019-05-15T01:54:48.892Z,7.40
2019-05-15T01:57:18.746Z,7.30
2019-05-15T01:59:57.162Z,7.30
2019-05-15T02:02:18.997Z,7.40
2019-05-15T02:04:48.806Z,7.30
2019-05-15T02:07:18.716Z,7.30
2019-05-15T02:09:49.177Z,7.30
2019-05-15T02:12:19.141Z,7.20
2019-05-15T02:14:48.704Z,7.20
2019-05-15T02:17:19.104Z,7.20
2019-05-15T02:19:49.450Z,7.10
2019-05-15T02:22:19.042Z,7.10
2019-05-15T02:24:48.385Z,7.10
2019-05-15T02:27:18.697Z,7.10
2019-05-15T02:29:49.323Z,7.10
2019-05-15T02:32:19.456Z,7.00
2019-05-15T02:34:49.978Z,7.00
2019-05-15T02:37:19.616Z,7.00
2019-05-15T02:39:49.735Z,7.00
2019-05-15T02:42:19.512Z,7.00
2019-05-15T02:44:50.038Z,6.90
2019-05-15T02:47:20.954Z,6.90
2019-05-15T02:49:50.253Z,6.80
2019-05-15T02:52:20.197Z,6.80
2019-05-15T02:54:49.991Z,6.80
2019-05-15T02:57:19.400Z,6.70
2019-05-15T02:59:49.837Z,6.70
2019-05-15T03:02:19.462Z,6.70
2019-05-15T03:04:49.252Z,6.60
2019-05-15T03:07:19.409Z,6.60
2019-05-15T03:09:49.735Z,6.70
2019-05-15T03:12:19.727Z,6.60
2019-05-15T03:14:49.614Z,6.60
2019-05-15T03:17:19.153Z,6.60
2019-05-15T03:19:49.841Z,6.60
2019-05-15T03:22:19.622Z,6.60
2019-05-15T03:24:50.212Z,6.70
2019-05-15T03:27:20.993Z,6.60
2019-05-15T03:29:50.294Z,6.50
2019-05-15T03:32:32.819Z,6.50
2019-05-15T03:34:56.398Z,6.50
2019-05-15T03:37:23.281Z,6.50
2019-05-15T03:39:52.723Z,6.40
2019-05-15T03:42:22.132Z,6.40
2019-05-15T03:44:51.416Z,6.40
2019-05-15T03:47:20.981Z,6.40
2019-05-15T03:49:50.415Z,6.40
2019-05-15T03:52:19.763Z,6.40
2019-05-15T03:54:49.693Z,6.40
2019-05-15T03:57:22.842Z,6.40
2019-05-15T03:59:50.086Z,6.30
2019-05-15T04:02:19.806Z,6.20
2019-05-15T04:04:50.085Z,6.20
2019-05-15T04:07:19.779Z,6.20
2019-05-15T04:09:49.589Z,6.30
2019-05-15T04:12:19.686Z,6.30
2019-05-15T04:14:49.994Z,6.30
2019-05-15T04:17:19.945Z,6.20
2019-05-15T04:19:49.794Z,6.20
2019-05-15T04:22:19.921Z,6.20
2019-05-15T04:24:51.215Z,6.20
2019-05-15T04:27:21.936Z,6.20
2019-05-15T04:29:51.491Z,6.10
2019-05-15T04:32:20.802Z,6.20
2019-05-15T04:34:50.087Z,6.20
2019-05-15T04:37:19.356Z,6.30
2019-05-15T04:39:49.206Z,6.40
2019-05-15T04:42:20.196Z,6.40
2019-05-15T04:44:49.969Z,6.40
2019-05-15T04:47:20.572Z,6.50
2019-05-15T04:49:50.552Z,6.60
2019-05-15T04:52:21.618Z,6.60
2019-05-15T04:54:51.240Z,6.70
2019-05-15T04:57:20.519Z,6.80
2019-05-15T04:59:49.891Z,6.80
2019-05-15T05:02:26.662Z,6.90
2019-05-15T05:04:50.194Z,7.00
2019-05-15T05:07:19.550Z,7.10
2019-05-15T05:09:49.058Z,7.10
2019-05-15T05:12:19.299Z,7.20
2019-05-15T05:14:48.940Z,7.20
2019-05-15T05:17:19.583Z,7.30
2019-05-15T05:19:51.353Z,7.40
2019-05-15T05:22:20.165Z,7.40
2019-05-15T05:24:49.919Z,7.50
2019-05-15T05:27:19.536Z,7.60
2019-05-15T05:29:48.809Z,7.70
2019-05-15T05:32:30.934Z,7.90
2019-05-15T05:34:49.078Z,8.10
2019-05-15T05:37:18.671Z,8.30
2019-05-15T05:39:49.047Z,8.50
2019-05-15T05:42:18.572Z,8.60
2019-05-15T05:44:48.878Z,8.90
2019-05-15T05:47:18.385Z,9.20
2019-05-15T05:49:48.962Z,9.50
2019-05-15T05:52:18.676Z,9.80
2019-05-15T05:54:49.152Z,10.10
2019-05-15T05:57:19.418Z,10.40
2019-05-15T05:59:49.116Z,10.70
2019-05-15T06:02:18.774Z,11.00
2019-05-15T06:04:48.062Z,11.30
2019-05-15T06:07:18.488Z,11.40
2019-05-15T06:09:49.138Z,11.50
2019-05-15T06:12:19.745Z,11.60
2019-05-15T06:14:49.012Z,11.70
2019-05-15T06:17:19.023Z,11.80
2019-05-15T06:19:48.747Z,12.00
2019-05-15T06:22:18.837Z,12.00
2019-05-15T06:24:48.584Z,12.20
2019-05-15T06:27:19.987Z,12.30
2019-05-15T06:29:48.940Z,12.30
2019-05-15T06:32:19.438Z,12.30
2019-05-15T06:34:50.122Z,12.30
2019-05-15T06:37:19.794Z,12.30
2019-05-15T06:39:49.177Z,12.40
2019-05-15T06:42:18.964Z,12.40
2019-05-15T06:44:49.340Z,12.60
2019-05-15T06:47:18.966Z,12.60
2019-05-15T06:49:48.731Z,12.60
2019-05-15T06:52:18.207Z,12.80
2019-05-15T06:54:48.522Z,12.70
2019-05-15T06:57:18.381Z,12.80
2019-05-15T06:59:48.443Z,13.10
2019-05-15T07:02:19.089Z,13.10
2019-05-15T07:04:48.901Z,13.20
2019-05-15T07:07:18.396Z,13.10
2019-05-15T07:09:48.662Z,12.90
2019-05-15T07:12:18.667Z,12.70
2019-05-15T07:14:48.718Z,12.80
2019-05-15T07:17:18.460Z,12.80
2019-05-15T07:19:48.533Z,12.90
2019-05-15T07:22:18.348Z,13.10
2019-05-15T07:24:47.893Z,13.40
2019-05-15T07:27:18.410Z,13.50
2019-05-15T07:29:48.751Z,13.80
2019-05-15T07:32:19.205Z,13.90
2019-05-15T07:34:49.708Z,13.90
2019-05-15T07:37:19.183Z,14.10
2019-05-15T07:39:48.921Z,14.20
2019-05-15T07:42:18.615Z,14.40
2019-05-15T07:44:48.321Z,14.60
2019-05-15T07:47:19.123Z,14.80
2019-05-15T07:49:49.179Z,14.80
2019-05-15T07:52:19.367Z,14.90
2019-05-15T07:54:48.960Z,14.80
2019-05-15T07:57:19.323Z,14.80
2019-05-15T07:59:49.062Z,14.50
2019-05-15T08:02:19.088Z,14.10
2019-05-15T08:04:48.629Z,14.00
2019-05-15T08:07:18.496Z,14.40
2019-05-15T08:09:48.603Z,14.60
2019-05-15T08:12:19.286Z,14.80
2019-05-15T08:14:50.872Z,14.90
2019-05-15T08:17:21.962Z,15.20
2019-05-15T08:19:51.837Z,15.20
2019-05-15T08:22:21.113Z,15.20
2019-05-15T08:24:50.713Z,15.40
2019-05-15T08:27:23.547Z,15.50
2019-05-15T08:29:51.535Z,15.40
2019-05-15T08:32:20.822Z,15.40
2019-05-15T08:34:50.458Z,15.50
2019-05-15T08:37:19.762Z,15.60
2019-05-15T08:39:49.364Z,15.70
2019-05-15T08:42:19.079Z,15.90
2019-05-15T08:44:48.910Z,15.70
2019-05-15T08:47:19.334Z,15.70
2019-05-15T08:49:49.011Z,15.90
2019-05-15T08:52:18.934Z,15.80
2019-05-15T08:54:48.747Z,15.70
2019-05-15T08:57:20.313Z,15.60
2019-05-15T08:59:49.194Z,15.60
2019-05-15T09:02:18.712Z,15.50
2019-05-15T09:04:48.709Z,15.60
2019-05-15T09:07:19.303Z,15.70
2019-05-15T09:09:48.853Z,15.80
2019-05-15T09:12:18.853Z,15.70
2019-05-15T09:14:48.832Z,15.30
2019-05-15T09:17:18.290Z,15.10
2019-05-15T09:19:48.187Z,15.10
2019-05-15T09:22:18.771Z,15.20
2019-05-15T09:24:49.012Z,15.30
2019-05-15T09:27:18.784Z,15.50
2019-05-15T09:29:48.565Z,15.50
2019-05-15T09:32:19.176Z,15.60
2019-05-15T09:34:54.822Z,15.70
2019-05-15T09:37:19.687Z,15.90
2019-05-15T09:39:49.143Z,15.90
2019-05-15T09:42:19.304Z,16.00
2019-05-15T09:44:48.719Z,16.20
2019-05-15T09:47:18.809Z,16.10
2019-05-15T09:49:48.615Z,16.00
2019-05-15T09:52:22.171Z,15.90
2019-05-15T09:54:49.434Z,15.90
2019-05-15T09:57:18.978Z,15.70
2019-05-15T09:59:48.922Z,15.40
2019-05-15T10:02:19.151Z,15.40
2019-05-15T10:05:04.161Z,15.40
2019-05-15T10:07:20.738Z,15.80
2019-05-15T10:09:52.345Z,15.90
2019-05-15T10:12:20.989Z,16.00
2019-05-15T10:14:50.545Z,15.90
2019-05-15T10:17:20.139Z,15.90
2019-05-15T10:19:49.753Z,15.70
2019-05-15T10:22:20.169Z,15.70
2019-05-15T10:24:50.959Z,15.80
2019-05-15T10:27:20.538Z,16.00
2019-05-15T10:29:49.818Z,16.00
2019-05-15T10:32:19.624Z,16.20
2019-05-15T10:34:48.945Z,16.20
2019-05-15T10:37:18.652Z,16.20
2019-05-15T10:39:52.141Z,16.30
2019-05-15T10:42:19.504Z,16.40
2019-05-15T10:44:48.944Z,16.40
2019-05-15T10:47:18.238Z,16.40
2019-05-15T10:49:48.467Z,16.20
2019-05-15T10:52:18.219Z,16.20
2019-05-15T10:54:47.528Z,16.40
2019-05-15T10:57:18.909Z,16.30
2019-05-15T10:59:48.597Z,16.20
2019-05-15T11:02:19.211Z,16.20
2019-05-15T11:04:48.994Z,16.30
2019-05-15T11:07:19.451Z,16.10
2019-05-15T11:09:50.423Z,16.20
2019-05-15T11:12:19.714Z,16.30
2019-05-15T11:14:49.316Z,16.30
2019-05-15T11:17:19.053Z,16.40
2019-05-15T11:19:49.822Z,16.50
2019-05-15T11:22:19.422Z,16.30
2019-05-15T11:24:52.294Z,16.20
2019-05-15T11:27:19.717Z,16.20
2019-05-15T11:29:49.001Z,16.40
2019-05-15T11:32:18.734Z,16.20
2019-05-15T11:34:49.254Z,16.20
2019-05-15T11:37:19.036Z,16.30
2019-05-15T11:39:48.854Z,16.30
2019-05-15T11:42:20.312Z,16.50
2019-05-15T11:44:53.205Z,16.60
2019-05-15T11:47:21.523Z,16.70
2019-05-15T11:49:50.790Z,16.50
2019-05-15T11:52:20.073Z,16.50
2019-05-15T11:54:49.659Z,16.70
2019-05-15T11:57:20.113Z,16.80
2019-05-15T11:59:55.403Z,16.80
2019-05-15T12:02:20.756Z,16.90
2019-05-15T12:04:50.109Z,16.90
2019-05-15T12:07:19.388Z,16.90
2019-05-15T12:09:48.995Z,16.80
2019-05-15T12:12:18.279Z,16.80
2019-05-15T12:14:49.422Z,17.00
2019-05-15T12:17:19.358Z,17.00
2019-05-15T12:19:54.920Z,16.90
2019-05-15T12:22:19.621Z,16.80
2019-05-15T12:24:50.168Z,16.90
2019-05-15T12:27:19.647Z,16.80
2019-05-15T12:29:49.413Z,16.70
2019-05-15T12:34:50.090Z,16.70
2019-05-15T12:37:19.860Z,16.60
2019-05-15T12:39:23.745Z,16.80
2019-05-15T12:59:59.427Z,16.70
2019-05-15T13:02:28.705Z,16.60
2019-05-15T13:04:57.985Z,16.60
2019-05-15T13:07:28.540Z,16.50
2019-05-15T13:09:58.087Z,16.40
2019-05-15T13:12:28.838Z,16.40
2019-05-15T13:14:59.043Z,16.50
2019-05-15T13:17:29.505Z,16.40
2019-05-15T13:19:58.846Z,16.30
2019-05-15T13:22:28.959Z,16.50
2019-05-15T13:24:58.838Z,16.70
2019-05-15T13:27:28.383Z,16.80
2019-05-15T13:29:58.347Z,16.60
2019-05-15T13:32:28.460Z,16.50
2019-05-15T13:34:59.439Z,16.50
2019-05-15T13:37:30.908Z,16.60
2019-05-15T13:40:01.777Z,16.40
2019-05-15T13:42:31.322Z,16.40
2019-05-15T13:45:00.608Z,16.50
2019-05-15T13:47:29.897Z,16.40
2019-05-15T13:49:59.433Z,16.50
2019-05-15T13:52:28.731Z,16.50
2019-05-15T13:54:58.001Z,16.40
2019-05-15T13:57:29.661Z,16.50
2019-05-15T13:59:58.931Z,16.50
2019-05-15T14:02:28.704Z,16.50
2019-05-15T14:04:58.409Z,16.70
2019-05-15T14:07:33.116Z,16.80
2019-05-15T14:09:59.919Z,16.90
2019-05-15T14:12:29.325Z,16.90
2019-05-15T14:14:58.891Z,16.80
2019-05-15T14:17:28.364Z,16.50
2019-05-15T14:19:58.718Z,16.50
2019-05-15T14:22:28.334Z,16.50
2019-05-15T14:24:58.376Z,16.50
2019-05-15T14:27:28.981Z,16.50
2019-05-15T14:29:59.205Z,16.40
2019-05-15T14:32:37.730Z,16.40
2019-05-15T14:34:59.529Z,16.40
2019-05-15T14:37:29.154Z,16.40
2019-05-15T14:39:58.426Z,16.50
2019-05-15T14:42:29.284Z,16.40
2019-05-15T14:44:59.323Z,16.30
2019-05-15T14:47:29.596Z,16.30
2019-05-15T14:50:00.097Z,16.40
2019-05-15T14:52:29.673Z,16.40
2019-05-15T14:54:59.266Z,16.40
2019-05-15T14:57:28.827Z,16.60
2019-05-15T14:59:58.391Z,16.60
2019-05-15T15:02:27.670Z,16.50
2019-05-15T15:04:59.443Z,16.40
2019-05-15T15:07:28.545Z,16.40
2019-05-15T15:09:58.274Z,16.50
2019-05-15T15:12:28.337Z,16.40
2019-05-15T15:14:57.940Z,16.50
2019-05-15T15:17:28.881Z,16.50
2019-05-15T15:20:00.229Z,16.50
2019-05-15T15:22:29.482Z,16.70
2019-05-15T15:24:59.844Z,16.70
2019-05-15T15:27:29.247Z,16.70
2019-05-15T15:29:58.531Z,16.60
2019-05-15T15:32:28.659Z,16.60
2019-05-15T15:34:58.679Z,16.70
2019-05-15T15:37:28.839Z,16.70
2019-05-15T15:39:58.790Z,16.60
2019-05-15T15:42:28.700Z,16.50
2019-05-15T15:44:58.230Z,16.40
2019-05-15T15:47:28.286Z,16.30
2019-05-15T15:49:58.469Z,16.20
2019-05-15T15:52:28.912Z,16.10
2019-05-15T15:54:58.434Z,16.00
2019-05-15T15:57:28.545Z,16.10
2019-05-15T15:59:58.061Z,16.10
2019-05-15T16:02:28.103Z,16.30
2019-05-15T16:04:58.942Z,16.20
2019-05-15T16:07:28.413Z,16.20
2019-05-15T16:09:58.884Z,16.30
2019-05-15T16:12:30.344Z,16.40
2019-05-15T16:14:59.649Z,16.40
2019-05-15T16:17:29.248Z,16.30
2019-05-15T16:19:58.875Z,16.30
2019-05-15T16:22:28.878Z,16.20
2019-05-15T16:24:58.781Z,16.30
2019-05-15T16:27:29.181Z,16.40
2019-05-15T16:29:58.835Z,16.30
2019-05-15T16:32:28.966Z,16.20
2019-05-15T16:34:58.740Z,16.10
2019-05-15T16:37:28.319Z,16.00
2019-05-15T16:40:00.042Z,15.90
2019-05-15T16:42:28.866Z,15.90
2019-05-15T16:44:59.296Z,15.90
2019-05-15T16:47:28.854Z,15.90
2019-05-15T16:49:58.458Z,15.90
2019-05-15T16:52:30.887Z,15.90
2019-05-15T16:54:59.515Z,15.80
2019-05-15T16:57:28.802Z,15.70
2019-05-15T16:59:58.738Z,15.80
2019-05-15T17:02:28.357Z,15.80
2019-05-15T17:04:57.750Z,15.70
2019-05-15T17:07:28.986Z,15.70
2019-05-15T17:09:58.696Z,15.60
2019-05-15T17:12:28.117Z,15.70
2019-05-15T17:14:58.459Z,15.70
2019-05-15T17:17:27.875Z,15.70
2019-05-15T17:19:57.972Z,15.70
2019-05-15T17:22:28.883Z,15.80
2019-05-15T17:24:58.446Z,15.80
2019-05-15T17:27:29.233Z,15.90
2019-05-15T17:29:58.850Z,15.90
2019-05-15T17:32:29.067Z,15.70
2019-05-15T17:34:59.599Z,15.70
2019-05-15T17:37:29.184Z,15.60
2019-05-15T17:39:59.020Z,15.50
2019-05-15T17:42:29.042Z,15.40
2019-05-15T17:44:58.382Z,15.40
2019-05-15T17:47:28.572Z,15.30
2019-05-15T17:49:58.846Z,15.30
2019-05-15T17:52:28.992Z,15.30
2019-05-15T17:54:59.241Z,15.30
2019-05-15T17:57:29.251Z,15.20
2019-05-15T17:59:59.103Z,15.20
2019-05-15T18:02:28.753Z,15.10
2019-05-15T18:04:59.513Z,15.00
2019-05-15T18:07:29.516Z,15.00
2019-05-15T18:09:59.214Z,15.00
2019-05-15T18:12:29.383Z,14.90
2019-05-15T18:14:59.063Z,14.90
2019-05-15T18:17:28.345Z,14.90
2019-05-15T18:19:58.061Z,14.80
2019-05-15T18:22:27.802Z,14.80
2019-05-15T18:24:58.102Z,14.70
2019-05-15T18:27:27.569Z,14.80
2019-05-15T18:29:58.435Z,14.70
2019-05-15T18:32:28.666Z,14.70
2019-05-15T18:34:59.362Z,14.60
2019-05-15T18:37:29.031Z,14.50
2019-05-15T18:40:05.337Z,14.50
2019-05-15T18:42:29.534Z,14.50
2019-05-15T18:44:58.820Z,14.40
2019-05-15T18:47:31.040Z,14.40
2019-05-15T18:50:06.084Z,14.30
2019-05-15T18:52:31.068Z,14.30
2019-05-15T18:55:00.675Z,14.20
2019-05-15T18:57:31.142Z,14.20
2019-05-15T19:00:00.915Z,14.20
2019-05-15T19:02:30.305Z,14.10
2019-05-15T19:04:59.579Z,14.00
2019-05-15T19:07:28.965Z,13.90
2019-05-15T19:09:58.240Z,13.90
2019-05-15T19:12:28.661Z,13.90
2019-05-15T19:14:58.695Z,13.90
2019-05-15T19:17:30.365Z,13.80
2019-05-15T19:19:59.514Z,13.80
2019-05-15T19:22:28.818Z,13.70
2019-05-15T19:24:58.733Z,13.70
2019-05-15T19:27:28.205Z,13.60
2019-05-15T19:29:59.078Z,13.60
2019-05-15T19:32:28.891Z,13.50
2019-05-15T19:34:58.844Z,13.40
2019-05-15T19:37:29.398Z,13.40
2019-05-15T19:39:59.055Z,13.30
2019-05-15T19:42:28.654Z,13.30
2019-05-15T19:44:58.969Z,13.30
2019-05-15T19:47:28.669Z,13.30
2019-05-15T19:49:58.187Z,13.30
2019-05-15T19:52:28.367Z,13.10
2019-05-15T19:54:58.027Z,13.10
2019-05-15T19:57:28.044Z,13.00
2019-05-15T19:59:58.155Z,12.90
2019-05-15T20:02:28.726Z,12.90
2019-05-15T20:04:59.343Z,12.80
2019-05-15T20:07:28.823Z,12.80
2019-05-15T20:09:58.522Z,12.70
2019-05-15T20:12:28.078Z,12.70
2019-05-15T20:14:58.379Z,12.60
2019-05-15T20:17:27.850Z,12.70
2019-05-15T20:19:58.130Z,12.60
2019-05-15T20:22:28.514Z,12.60
2019-05-15T20:24:58.823Z,12.60
2019-05-15T20:27:28.527Z,12.50
2019-05-15T20:29:57.877Z,12.40
2019-05-15T20:32:27.861Z,12.40
2019-05-15T20:34:57.849Z,12.40
2019-05-15T20:37:28.884Z,12.30
2019-05-15T20:39:59.573Z,12.20
2019-05-15T20:42:29.121Z,12.20
2019-05-15T20:44:58.677Z,12.20
2019-05-15T20:47:28.155Z,12.20
2019-05-15T20:49:57.601Z,12.10
2019-05-15T20:52:28.561Z,12.10
2019-05-15T20:54:59.360Z,12.10
2019-05-15T20:57:28.821Z,12.10
2019-05-15T20:59:58.766Z,12.10
2019-05-15T21:02:28.977Z,12.00
2019-05-15T21:05:00.763Z,12.00
2019-05-15T21:07:38.671Z,12.00
2019-05-15T21:10:00.860Z,11.90
2019-05-15T21:12:30.218Z,11.90
2019-05-15T21:14:59.777Z,11.90
2019-05-15T21:17:29.050Z,11.80
2019-05-15T21:20:01.091Z,11.70
2019-05-15T21:22:29.739Z,11.60
2019-05-15T21:24:59.148Z,11.20
2019-05-15T21:27:32.534Z,11.10
2019-05-15T21:29:59.701Z,11.10
2019-05-15T21:32:29.250Z,11.10
2019-05-15T21:34:58.526Z,11.10
2019-05-15T21:37:30.426Z,11.10
2019-05-15T21:39:59.378Z,11.00
2019-05-15T21:42:28.661Z,11.00
2019-05-15T21:44:58.264Z,10.90
2019-05-15T21:47:28.130Z,10.90
2019-05-15T21:49:57.509Z,10.90
2019-05-15T21:52:28.897Z,10.80
2019-05-15T21:54:59.433Z,10.90
2019-05-15T21:57:35.954Z,10.80
2019-05-15T22:00:00.725Z,10.80
2019-05-15T22:02:30.537Z,10.80
2019-05-15T22:05:00.066Z,10.80
2019-05-15T22:07:29.528Z,10.90
2019-05-15T22:09:58.789Z,10.80
2019-05-15T22:12:28.600Z,10.70
2019-05-15T22:14:58.395Z,10.60
2019-05-15T22:17:29.306Z,10.40
2019-05-15T22:19:59.061Z,10.30
2019-05-15T22:22:28.570Z,10.40
2019-05-15T22:24:58.268Z,10.30
2019-05-15T22:27:28.948Z,10.30
2019-05-15T22:29:58.854Z,10.20
2019-05-15T22:32:29.128Z,10.30
2019-05-15T22:35:07.038Z,10.20
2019-05-15T22:37:29.994Z,10.30
2019-05-15T22:40:00.828Z,10.20
2019-05-15T22:42:31.763Z,10.10
2019-05-15T22:45:01.242Z,10.10
2019-05-15T22:47:30.519Z,10.20
2019-05-15T22:50:00.181Z,10.30
2019-05-15T22:52:29.541Z,10.20
2019-05-15T22:54:58.824Z,10.10
2019-05-15T22:57:28.144Z,10.20
2019-05-15T22:59:58.139Z,10.10
2019-05-15T23:02:27.690Z,10.10
2019-05-15T23:04:57.223Z,10.10
2019-05-15T23:07:28.151Z,10.00
2019-05-15T23:09:58.315Z,10.00
2019-05-15T23:12:28.728Z,9.90
2019-05-15T23:14:58.137Z,9.90
2019-05-15T23:17:28.634Z,9.90
2019-05-15T23:19:58.266Z,9.80
2019-05-15T23:22:28.055Z,9.70
2019-05-15T23:24:58.582Z,9.60
2019-05-15T23:27:28.734Z,9.60
2019-05-15T23:29:58.516Z,9.60
2019-05-15T23:32:28.880Z,9.50
2019-05-15T23:34:58.571Z,9.40
2019-05-15T23:37:28.118Z,9.40
2019-05-15T23:39:57.976Z,9.30
2019-05-15T23:42:29.267Z,9.20
2019-05-15T23:44:59.133Z,9.20
2019-05-15T23:47:28.668Z,9.20
2019-05-15T23:49:58.067Z,9.30
2019-05-15T23:52:27.649Z,9.30
2019-05-15T23:54:58.855Z,9.40
2019-05-15T23:57:28.653Z,9.40
2019-05-15T23:59:58.057Z,9.30
